sensor_id;sensor_type;location;lat;lon;timestamp;temperature;humidity
19781;DHT22;10050;55.492;13.506;2023-04-01T00:01:11;2.80;99.90
19781;DHT22;10050;55.492;13.506;2023-04-01T00:03:39;2.70;99.90
19781;DHT22;10050;55.492;13.506;2023-04-01T00:06:05;2.70;99.90
19781;DHT22;10050;55.492;13.506;2023-04-01T00:08:31;2.70;99.90
19781;DHT22;10050;55.492;13.506;2023-04-01T00:10:57;2.70;99.90
19781;DHT22;10050;55.492;13.506;2023-04-01T00:13:25;2.70;99.90
19781;DHT22;10050;55.492;13.506;2023-04-01T00:15:52;2.70;99.90
19781;DHT22;10050;55.492;13.506;2023-04-01T00:18:18;2.70;99.90
19781;DHT22;10050;55.492;13.506;2023-04-01T00:20:52;2.70;99.90
19781;DHT22;10050;55.492;13.506;2023-04-01T00:23:19;2.70;99.90
19781;DHT22;10050;55.492;13.506;2023-04-01T00:25:46;2.70;99.90
19781;DHT22;10050;55.492;13.506;2023-04-01T00:28:14;2.70;99.90
19781;DHT22;10050;55.492;13.506;2023-04-01T00:30:42;2.80;99.90
19781;DHT22;10050;55.492;13.506;2023-04-01T00:33:08;2.70;99.90
19781;DHT22;10050;55.492;13.506;2023-04-01T00:35:34;2.70;99.90
19781;DHT22;10050;55.492;13.506;2023-04-01T00:38:00;2.70;99.90
19781;DHT22;10050;55.492;13.506;2023-04-01T00:40:32;2.70;99.90
19781;DHT22;10050;55.492;13.506;2023-04-01T00:42:58;2.70;99.90
19781;DHT22;10050;55.492;13.506;2023-04-01T00:45:36;2.70;99.90
19781;DHT22;10050;55.492;13.506;2023-04-01T00:48:23;2.70;99.90
19781;DHT22;10050;55.492;13.506;2023-04-01T00:51:15;2.70;99.90
19781;DHT22;10050;55.492;13.506;2023-04-01T00:53:45;2.70;99.90
19781;DHT22;10050;55.492;13.506;2023-04-01T00:56:18;2.70;99.90
19781;DHT22;10050;55.492;13.506;2023-04-01T00:58:50;2.70;99.90
19781;DHT22;10050;55.492;13.506;2023-04-01T01:01:17;2.70;99.90
19781;DHT22;10050;55.492;13.506;2023-04-01T01:03:43;2.70;99.90
19781;DHT22;10050;55.492;13.506;2023-04-01T01:11:54;2.60;99.90
19781;DHT22;10050;55.492;13.506;2023-04-01T01:14:48;2.60;99.90
19781;DHT22;10050;55.492;13.506;2023-04-01T01:20:36;2.60;99.90
19781;DHT22;10050;55.492;13.506;2023-04-01T01:31:17;2.60;99.90
19781;DHT22;10050;55.492;13.506;2023-04-01T01:36:33;2.60;99.90
19781;DHT22;10050;55.492;13.506;2023-04-01T01:39:02;2.60;99.90
19781;DHT22;10050;55.492;13.506;2023-04-01T01:41:29;2.60;99.90
19781;DHT22;10050;55.492;13.506;2023-04-01T01:43:56;2.60;99.90
19781;DHT22;10050;55.492;13.506;2023-04-01T01:46:25;2.60;99.90
19781;DHT22;10050;55.492;13.506;2023-04-01T01:48:52;2.60;99.90
19781;DHT22;10050;55.492;13.506;2023-04-01T01:51:20;2.50;99.90
19781;DHT22;10050;55.492;13.506;2023-04-01T01:53:46;2.60;99.90
19781;DHT22;10050;55.492;13.506;2023-04-01T01:56:12;2.50;99.90
19781;DHT22;10050;55.492;13.506;2023-04-01T01:58:47;2.60;99.90
19781;DHT22;10050;55.492;13.506;2023-04-01T02:01:26;2.50;99.90
19781;DHT22;10050;55.492;13.506;2023-04-01T02:03:53;2.60;99.90
19781;DHT22;10050;55.492;13.506;2023-04-01T02:06:22;2.50;99.90
19781;DHT22;10050;55.492;13.506;2023-04-01T02:08:55;2.60;99.90
19781;DHT22;10050;55.492;13.506;2023-04-01T02:11:50;2.60;99.90
19781;DHT22;10050;55.492;13.506;2023-04-01T02:14:20;2.60;99.90
19781;DHT22;10050;55.492;13.506;2023-04-01T02:19:18;2.60;99.90
19781;DHT22;10050;55.492;13.506;2023-04-01T02:21:54;2.60;99.90
19781;DHT22;10050;55.492;13.506;2023-04-01T02:24:22;2.60;99.90
19781;DHT22;10050;55.492;13.506;2023-04-01T02:26:51;2.60;99.90
19781;DHT22;10050;55.492;13.506;2023-04-01T02:29:20;2.60;99.90
19781;DHT22;10050;55.492;13.506;2023-04-01T02:31:47;2.60;99.90
19781;DHT22;10050;55.492;13.506;2023-04-01T02:34:13;2.70;99.90
19781;DHT22;10050;55.492;13.506;2023-04-01T02:36:39;2.70;99.90
19781;DHT22;10050;55.492;13.506;2023-04-01T02:39:05;2.70;99.90
19781;DHT22;10050;55.492;13.506;2023-04-01T02:41:31;2.60;99.90
19781;DHT22;10050;55.492;13.506;2023-04-01T02:44:03;2.70;99.90
19781;DHT22;10050;55.492;13.506;2023-04-01T02:46:29;2.60;99.90
19781;DHT22;10050;55.492;13.506;2023-04-01T02:48:55;2.60;99.90
19781;DHT22;10050;55.492;13.506;2023-04-01T02:51:21;2.60;99.90
19781;DHT22;10050;55.492;13.506;2023-04-01T02:53:46;2.60;99.90
19781;DHT22;10050;55.492;13.506;2023-04-01T02:56:12;2.60;99.90
19781;DHT22;10050;55.492;13.506;2023-04-01T02:58:37;2.70;99.90
19781;DHT22;10050;55.492;13.506;2023-04-01T03:01:03;2.60;99.90
19781;DHT22;10050;55.492;13.506;2023-04-01T03:03:29;2.70;99.90
19781;DHT22;10050;55.492;13.506;2023-04-01T03:05:54;2.70;99.90
19781;DHT22;10050;55.492;13.506;2023-04-01T03:08:25;2.70;99.90
19781;DHT22;10050;55.492;13.506;2023-04-01T03:10:51;2.70;99.90
19781;DHT22;10050;55.492;13.506;2023-04-01T03:13:16;2.70;99.90
19781;DHT22;10050;55.492;13.506;2023-04-01T03:15:42;2.70;99.90
19781;DHT22;10050;55.492;13.506;2023-04-01T03:18:08;2.70;99.90
19781;DHT22;10050;55.492;13.506;2023-04-01T03:20:33;2.70;99.90
19781;DHT22;10050;55.492;13.506;2023-04-01T03:22:59;2.70;99.90
19781;DHT22;10050;55.492;13.506;2023-04-01T03:25:25;2.70;99.90
19781;DHT22;10050;55.492;13.506;2023-04-01T03:27:57;2.70;99.90
19781;DHT22;10050;55.492;13.506;2023-04-01T03:30:25;2.70;99.90
19781;DHT22;10050;55.492;13.506;2023-04-01T03:32:57;2.70;99.90
19781;DHT22;10050;55.492;13.506;2023-04-01T03:35:23;2.80;99.90
19781;DHT22;10050;55.492;13.506;2023-04-01T03:37:50;2.70;99.90
19781;DHT22;10050;55.492;13.506;2023-04-01T03:40:16;2.70;99.90
19781;DHT22;10050;55.492;13.506;2023-04-01T03:42:42;2.70;99.90
19781;DHT22;10050;55.492;13.506;2023-04-01T03:45:08;2.70;99.90
19781;DHT22;10050;55.492;13.506;2023-04-01T03:47:35;2.70;99.90
19781;DHT22;10050;55.492;13.506;2023-04-01T03:50:00;2.60;99.90
19781;DHT22;10050;55.492;13.506;2023-04-01T03:52:26;2.60;99.90
19781;DHT22;10050;55.492;13.506;2023-04-01T03:54:52;2.60;99.90
19781;DHT22;10050;55.492;13.506;2023-04-01T03:57:20;2.60;99.90
19781;DHT22;10050;55.492;13.506;2023-04-01T03:59:46;2.60;99.90
19781;DHT22;10050;55.492;13.506;2023-04-01T04:02:11;2.60;99.90
19781;DHT22;10050;55.492;13.506;2023-04-01T04:04:37;2.60;99.90
19781;DHT22;10050;55.492;13.506;2023-04-01T04:07:05;2.60;99.90
19781;DHT22;10050;55.492;13.506;2023-04-01T04:09:31;2.60;99.90
19781;DHT22;10050;55.492;13.506;2023-04-01T04:11:57;2.60;99.90
19781;DHT22;10050;55.492;13.506;2023-04-01T04:14:23;2.60;99.90
19781;DHT22;10050;55.492;13.506;2023-04-01T04:16:48;2.50;99.90
19781;DHT22;10050;55.492;13.506;2023-04-01T04:19:14;2.60;99.90
19781;DHT22;10050;55.492;13.506;2023-04-01T04:21:43;2.60;99.90
19781;DHT22;10050;55.492;13.506;2023-04-01T04:24:09;2.60;99.90
19781;DHT22;10050;55.492;13.506;2023-04-01T04:26:35;2.60;99.90
19781;DHT22;10050;55.492;13.506;2023-04-01T04:29:01;2.60;99.90
19781;DHT22;10050;55.492;13.506;2023-04-01T04:31:27;2.60;99.90
19781;DHT22;10050;55.492;13.506;2023-04-01T04:33:53;2.60;99.90
19781;DHT22;10050;55.492;13.506;2023-04-01T04:36:21;2.50;99.90
19781;DHT22;10050;55.492;13.506;2023-04-01T04:38:47;2.50;99.90
19781;DHT22;10050;55.492;13.506;2023-04-01T04:41:15;2.50;99.90
19781;DHT22;10050;55.492;13.506;2023-04-01T04:43:49;2.50;99.90
19781;DHT22;10050;55.492;13.506;2023-04-01T04:46:15;2.50;99.90
19781;DHT22;10050;55.492;13.506;2023-04-01T04:48:41;2.50;99.90
19781;DHT22;10050;55.492;13.506;2023-04-01T04:51:15;2.50;99.90
19781;DHT22;10050;55.492;13.506;2023-04-01T04:53:44;2.50;99.90
19781;DHT22;10050;55.492;13.506;2023-04-01T04:56:10;2.50;99.90
19781;DHT22;10050;55.492;13.506;2023-04-01T04:58:39;2.50;99.90
19781;DHT22;10050;55.492;13.506;2023-04-01T05:01:11;2.50;99.90
19781;DHT22;10050;55.492;13.506;2023-04-01T05:03:38;2.50;99.90
19781;DHT22;10050;55.492;13.506;2023-04-01T05:06:05;2.50;99.90
19781;DHT22;10050;55.492;13.506;2023-04-01T05:08:31;2.40;99.90
19781;DHT22;10050;55.492;13.506;2023-04-01T05:10:58;2.50;99.90
19781;DHT22;10050;55.492;13.506;2023-04-01T05:13:24;2.40;99.90
19781;DHT22;10050;55.492;13.506;2023-04-01T05:15:50;2.40;99.90
19781;DHT22;10050;55.492;13.506;2023-04-01T05:18:16;2.40;99.90
19781;DHT22;10050;55.492;13.506;2023-04-01T05:21:00;2.40;99.90
19781;DHT22;10050;55.492;13.506;2023-04-01T05:23:25;2.40;99.90
19781;DHT22;10050;55.492;13.506;2023-04-01T05:25:51;2.40;99.90
19781;DHT22;10050;55.492;13.506;2023-04-01T05:28:19;2.40;99.90
19781;DHT22;10050;55.492;13.506;2023-04-01T05:30:45;2.40;99.90
19781;DHT22;10050;55.492;13.506;2023-04-01T05:33:12;2.40;99.90
19781;DHT22;10050;55.492;13.506;2023-04-01T05:35:39;2.40;99.90
19781;DHT22;10050;55.492;13.506;2023-04-01T05:38:05;2.40;99.90
19781;DHT22;10050;55.492;13.506;2023-04-01T05:40:31;2.40;99.90
19781;DHT22;10050;55.492;13.506;2023-04-01T05:42:58;2.30;99.90
19781;DHT22;10050;55.492;13.506;2023-04-01T05:45:24;2.30;99.90
19781;DHT22;10050;55.492;13.506;2023-04-01T05:47:50;2.30;99.90
19781;DHT22;10050;55.492;13.506;2023-04-01T05:50:19;2.30;99.90
19781;DHT22;10050;55.492;13.506;2023-04-01T05:52:45;2.30;99.90
19781;DHT22;10050;55.492;13.506;2023-04-01T05:55:11;2.30;99.90
19781;DHT22;10050;55.492;13.506;2023-04-01T05:57:36;2.30;99.90
19781;DHT22;10050;55.492;13.506;2023-04-01T06:00:05;2.30;99.90
19781;DHT22;10050;55.492;13.506;2023-04-01T06:02:31;2.30;99.90
19781;DHT22;10050;55.492;13.506;2023-04-01T06:05:10;2.30;99.90
19781;DHT22;10050;55.492;13.506;2023-04-01T06:07:37;2.40;99.90
19781;DHT22;10050;55.492;13.506;2023-04-01T06:10:17;2.30;99.90
19781;DHT22;10050;55.492;13.506;2023-04-01T06:15:38;2.30;99.90
19781;DHT22;10050;55.492;13.506;2023-04-01T06:18:18;2.40;99.90
19781;DHT22;10050;55.492;13.506;2023-04-01T06:43:18;2.50;99.90
19781;DHT22;10050;55.492;13.506;2023-04-01T06:49:11;2.60;99.90
19781;DHT22;10050;55.492;13.506;2023-04-01T06:52:17;2.60;99.90
19781;DHT22;10050;55.492;13.506;2023-04-01T06:54:52;2.70;99.90
19781;DHT22;10050;55.492;13.506;2023-04-01T06:59:50;2.80;99.90
19781;DHT22;10050;55.492;13.506;2023-04-01T07:04:58;2.80;99.90
19781;DHT22;10050;55.492;13.506;2023-04-01T07:07:38;2.90;99.90
19781;DHT22;10050;55.492;13.506;2023-04-01T07:10:17;3.00;99.90
19781;DHT22;10050;55.492;13.506;2023-04-01T07:12:51;3.00;99.90
19781;DHT22;10050;55.492;13.506;2023-04-01T07:15:24;3.10;99.90
19781;DHT22;10050;55.492;13.506;2023-04-01T07:18:07;3.30;99.90
19781;DHT22;10050;55.492;13.506;2023-04-01T07:20:38;3.80;99.90
19781;DHT22;10050;55.492;13.506;2023-04-01T07:23:21;4.40;99.90
19781;DHT22;10050;55.492;13.506;2023-04-01T07:26:11;4.40;99.90
19781;DHT22;10050;55.492;13.506;2023-04-01T07:28:46;4.80;99.90
19781;DHT22;10050;55.492;13.506;2023-04-01T07:34:22;5.60;99.90
19781;DHT22;10050;55.492;13.506;2023-04-01T07:36:54;5.60;99.90
19781;DHT22;10050;55.492;13.506;2023-04-01T07:42:10;5.90;99.90
19781;DHT22;10050;55.492;13.506;2023-04-01T07:47:50;5.70;99.90
19781;DHT22;10050;55.492;13.506;2023-04-01T07:50:46;5.50;99.90
19781;DHT22;10050;55.492;13.506;2023-04-01T07:53:20;5.60;99.90
19781;DHT22;10050;55.492;13.506;2023-04-01T08:06:52;6.90;99.90
19781;DHT22;10050;55.492;13.506;2023-04-01T08:17:54;7.40;99.90
19781;DHT22;10050;55.492;13.506;2023-04-01T08:31:16;8.40;99.90
19781;DHT22;10050;55.492;13.506;2023-04-01T08:33:46;8.80;99.90
19781;DHT22;10050;55.492;13.506;2023-04-01T08:36:22;8.80;99.90
19781;DHT22;10050;55.492;13.506;2023-04-01T08:39:04;8.60;99.90
19781;DHT22;10050;55.492;13.506;2023-04-01T08:56:20;9.00;99.90
19781;DHT22;10050;55.492;13.506;2023-04-01T09:01:53;8.80;99.90
19781;DHT22;10050;55.492;13.506;2023-04-01T09:04:40;8.80;99.90
19781;DHT22;10050;55.492;13.506;2023-04-01T09:30:19;9.20;99.90
19781;DHT22;10050;55.492;13.506;2023-04-01T09:33:12;9.70;99.90
19781;DHT22;10050;55.492;13.506;2023-04-01T09:36:37;10.20;99.90
19781;DHT22;10050;55.492;13.506;2023-04-01T09:39:49;10.20;99.90
19781;DHT22;10050;55.492;13.506;2023-04-01T09:44:37;9.10;99.90
19781;DHT22;10050;55.492;13.506;2023-04-01T09:47:23;9.60;99.90
19781;DHT22;10050;55.492;13.506;2023-04-01T10:04:24;9.60;99.90
19781;DHT22;10050;55.492;13.506;2023-04-01T10:18:35;9.20;99.90
19781;DHT22;10050;55.492;13.506;2023-04-01T10:24:00;9.30;99.90
19781;DHT22;10050;55.492;13.506;2023-04-01T10:30:02;8.80;99.90
19781;DHT22;10050;55.492;13.506;2023-04-01T10:38:44;9.20;99.90
19781;DHT22;10050;55.492;13.506;2023-04-01T11:15:31;9.40;99.90
19781;DHT22;10050;55.492;13.506;2023-04-01T11:26:39;8.80;99.90
19781;DHT22;10050;55.492;13.506;2023-04-01T11:42:54;8.60;99.90
19781;DHT22;10050;55.492;13.506;2023-04-01T11:48:33;8.40;99.90
19781;DHT22;10050;55.492;13.506;2023-04-01T12:02:33;8.40;99.90
19781;DHT22;10050;55.492;13.506;2023-04-01T12:05:12;8.40;99.90
19781;DHT22;10050;55.492;13.506;2023-04-01T12:08:02;8.40;99.90
19781;DHT22;10050;55.492;13.506;2023-04-01T12:13:32;8.60;99.90
19781;DHT22;10050;55.492;13.506;2023-04-01T12:18:57;8.80;99.90
19781;DHT22;10050;55.492;13.506;2023-04-01T12:21:38;8.90;99.90
19781;DHT22;10050;55.492;13.506;2023-04-01T12:32:29;8.50;99.90
19781;DHT22;10050;55.492;13.506;2023-04-01T12:35:21;8.20;99.90
19781;DHT22;10050;55.492;13.506;2023-04-01T12:38:25;8.50;99.90
19781;DHT22;10050;55.492;13.506;2023-04-01T12:46:37;8.20;99.90
19781;DHT22;10050;55.492;13.506;2023-04-01T12:49:27;8.20;99.90
19781;DHT22;10050;55.492;13.506;2023-04-01T13:00:27;8.80;99.90
19781;DHT22;10050;55.492;13.506;2023-04-01T13:19:58;8.30;99.90
19781;DHT22;10050;55.492;13.506;2023-04-01T13:27:49;8.60;99.90
19781;DHT22;10050;55.492;13.506;2023-04-01T13:32:58;8.40;99.90
19781;DHT22;10050;55.492;13.506;2023-04-01T13:42:10;8.70;99.90
19781;DHT22;10050;55.492;13.506;2023-04-01T13:48:02;8.60;99.90
19781;DHT22;10050;55.492;13.506;2023-04-01T13:50:47;8.60;99.90
19781;DHT22;10050;55.492;13.506;2023-04-01T13:54:07;8.60;99.90
19781;DHT22;10050;55.492;13.506;2023-04-01T13:56:33;8.60;99.90
19781;DHT22;10050;55.492;13.506;2023-04-01T14:05:20;8.80;99.90
19781;DHT22;10050;55.492;13.506;2023-04-01T14:41:33;8.10;99.90
19781;DHT22;10050;55.492;13.506;2023-04-01T14:49:04;8.10;99.90
19781;DHT22;10050;55.492;13.506;2023-04-01T14:51:36;8.10;99.90
19781;DHT22;10050;55.492;13.506;2023-04-01T14:56:47;8.10;99.90
19781;DHT22;10050;55.492;13.506;2023-04-01T15:21:45;7.70;99.90
19781;DHT22;10050;55.492;13.506;2023-04-01T15:24:41;7.70;99.90
19781;DHT22;10050;55.492;13.506;2023-04-01T15:31:00;7.70;99.90
19781;DHT22;10050;55.492;13.506;2023-04-01T15:33:28;7.60;99.90
19781;DHT22;10050;55.492;13.506;2023-04-01T15:36:16;7.60;99.90
19781;DHT22;10050;55.492;13.506;2023-04-01T15:38:51;7.50;99.90
19781;DHT22;10050;55.492;13.506;2023-04-01T15:41:28;7.50;99.90
19781;DHT22;10050;55.492;13.506;2023-04-01T15:44:00;7.30;99.90
19781;DHT22;10050;55.492;13.506;2023-04-01T15:46:48;7.20;99.90
19781;DHT22;10050;55.492;13.506;2023-04-01T15:49:37;7.20;99.90
19781;DHT22;10050;55.492;13.506;2023-04-01T15:52:16;7.20;99.90
19781;DHT22;10050;55.492;13.506;2023-04-01T16:00:18;6.90;99.90
19781;DHT22;10050;55.492;13.506;2023-04-01T16:19:37;6.60;99.90
19781;DHT22;10050;55.492;13.506;2023-04-01T16:25:41;6.50;99.90
19781;DHT22;10050;55.492;13.506;2023-04-01T16:28:32;6.50;99.90
19781;DHT22;10050;55.492;13.506;2023-04-01T16:33:40;6.40;99.90
19781;DHT22;10050;55.492;13.506;2023-04-01T16:36:22;6.40;99.90
19781;DHT22;10050;55.492;13.506;2023-04-01T16:44:31;6.20;99.90
19781;DHT22;10050;55.492;13.506;2023-04-01T16:47:12;6.10;99.90
19781;DHT22;10050;55.492;13.506;2023-04-01T16:49:46;6.00;99.90
19781;DHT22;10050;55.492;13.506;2023-04-01T16:55:17;5.90;99.90
19781;DHT22;10050;55.492;13.506;2023-04-01T16:57:50;5.80;99.90
19781;DHT22;10050;55.492;13.506;2023-04-01T17:00:30;5.70;99.90
19781;DHT22;10050;55.492;13.506;2023-04-01T17:08:19;5.50;99.90
19781;DHT22;10050;55.492;13.506;2023-04-01T17:10:53;5.50;99.90
19781;DHT22;10050;55.492;13.506;2023-04-01T17:13:35;5.40;99.90
19781;DHT22;10050;55.492;13.506;2023-04-01T17:19:26;5.30;99.90
19781;DHT22;10050;55.492;13.506;2023-04-01T17:27:23;5.10;99.90
19781;DHT22;10050;55.492;13.506;2023-04-01T17:30:17;5.00;99.90
19781;DHT22;10050;55.492;13.506;2023-04-01T17:36:08;5.00;99.90
19781;DHT22;10050;55.492;13.506;2023-04-01T17:41:19;4.80;99.90
19781;DHT22;10050;55.492;13.506;2023-04-01T17:44:09;4.70;99.90
19781;DHT22;10050;55.492;13.506;2023-04-01T17:52:34;4.70;99.90
19781;DHT22;10050;55.492;13.506;2023-04-01T17:57:52;4.50;99.90
19781;DHT22;10050;55.492;13.506;2023-04-01T18:00:45;4.50;99.90
19781;DHT22;10050;55.492;13.506;2023-04-01T18:08:47;4.40;99.90
19781;DHT22;10050;55.492;13.506;2023-04-01T18:11:25;4.30;99.90
19781;DHT22;10050;55.492;13.506;2023-04-01T18:19:36;4.30;99.90
19781;DHT22;10050;55.492;13.506;2023-04-01T18:27:43;4.20;99.90
19781;DHT22;10050;55.492;13.506;2023-04-01T18:30:28;4.10;99.90
19781;DHT22;10050;55.492;13.506;2023-04-01T18:33:18;4.10;99.90
19781;DHT22;10050;55.492;13.506;2023-04-01T18:35:52;4.10;99.90
19781;DHT22;10050;55.492;13.506;2023-04-01T18:38:29;4.10;99.90
19781;DHT22;10050;55.492;13.506;2023-04-01T18:49:25;3.90;99.90
19781;DHT22;10050;55.492;13.506;2023-04-01T18:52:44;4.00;99.90
19781;DHT22;10050;55.492;13.506;2023-04-01T18:57:50;3.90;99.90
19781;DHT22;10050;55.492;13.506;2023-04-01T19:00:41;3.90;99.90
19781;DHT22;10050;55.492;13.506;2023-04-01T19:03:25;3.90;99.90
19781;DHT22;10050;55.492;13.506;2023-04-01T19:05:54;3.90;99.90
19781;DHT22;10050;55.492;13.506;2023-04-01T19:08:31;4.00;99.90
19781;DHT22;10050;55.492;13.506;2023-04-01T19:11:11;4.00;99.90
19781;DHT22;10050;55.492;13.506;2023-04-01T19:21:52;3.80;99.90
19781;DHT22;10050;55.492;13.506;2023-04-01T19:27:10;3.80;99.90
19781;DHT22;10050;55.492;13.506;2023-04-01T19:38:31;3.70;99.90
19781;DHT22;10050;55.492;13.506;2023-04-01T19:46:38;3.50;99.90
19781;DHT22;10050;55.492;13.506;2023-04-01T19:51:52;3.40;99.90
19781;DHT22;10050;55.492;13.506;2023-04-01T19:54:29;3.30;99.90
19781;DHT22;10050;55.492;13.506;2023-04-01T19:57:12;3.20;99.90
19781;DHT22;10050;55.492;13.506;2023-04-01T20:08:40;3.20;99.90
19781;DHT22;10050;55.492;13.506;2023-04-01T20:16:18;3.10;99.90
19781;DHT22;10050;55.492;13.506;2023-04-01T20:18:58;3.00;99.90
19781;DHT22;10050;55.492;13.506;2023-04-01T20:21:43;3.00;99.90
19781;DHT22;10050;55.492;13.506;2023-04-01T20:26:47;3.00;99.90
19781;DHT22;10050;55.492;13.506;2023-04-01T20:32:40;3.00;99.90
19781;DHT22;10050;55.492;13.506;2023-04-01T20:39:01;2.90;99.90
19781;DHT22;10050;55.492;13.506;2023-04-01T20:41:20;3.00;99.90
19781;DHT22;10050;55.492;13.506;2023-04-01T20:44:07;3.00;99.90
19781;DHT22;10050;55.492;13.506;2023-04-01T20:46:39;3.00;99.90
19781;DHT22;10050;55.492;13.506;2023-04-01T20:49:29;3.00;99.90
19781;DHT22;10050;55.492;13.506;2023-04-01T20:52:18;2.90;99.90
19781;DHT22;10050;55.492;13.506;2023-04-01T21:08:26;2.90;99.90
19781;DHT22;10050;55.492;13.506;2023-04-01T21:11:13;2.90;99.90
19781;DHT22;10050;55.492;13.506;2023-04-01T21:13:56;2.80;99.90
19781;DHT22;10050;55.492;13.506;2023-04-01T21:16:39;2.70;99.90
19781;DHT22;10050;55.492;13.506;2023-04-01T21:37:26;2.70;99.90
19781;DHT22;10050;55.492;13.506;2023-04-01T21:43:18;2.60;99.90
19781;DHT22;10050;55.492;13.506;2023-04-01T21:56:49;2.40;99.90
19781;DHT22;10050;55.492;13.506;2023-04-01T22:05:36;2.30;99.90
19781;DHT22;10050;55.492;13.506;2023-04-01T22:11:07;2.30;99.90
19781;DHT22;10050;55.492;13.506;2023-04-01T22:13:50;2.30;99.90
19781;DHT22;10050;55.492;13.506;2023-04-01T22:21:48;2.20;99.90
19781;DHT22;10050;55.492;13.506;2023-04-01T22:30:08;2.10;99.90
19781;DHT22;10050;55.492;13.506;2023-04-01T22:32:47;2.10;99.90
19781;DHT22;10050;55.492;13.506;2023-04-01T22:35:24;2.10;99.90
19781;DHT22;10050;55.492;13.506;2023-04-01T22:38:05;2.00;99.90
19781;DHT22;10050;55.492;13.506;2023-04-01T22:40:47;2.00;99.90
19781;DHT22;10050;55.492;13.506;2023-04-01T22:49:03;2.00;99.90
19781;DHT22;10050;55.492;13.506;2023-04-01T22:57:04;2.00;99.90
19781;DHT22;10050;55.492;13.506;2023-04-01T23:00:01;1.90;99.90
19781;DHT22;10050;55.492;13.506;2023-04-01T23:02:39;1.90;99.90
19781;DHT22;10050;55.492;13.506;2023-04-01T23:05:10;1.80;99.90
19781;DHT22;10050;55.492;13.506;2023-04-01T23:12:50;1.80;99.90
19781;DHT22;10050;55.492;13.506;2023-04-01T23:15:17;1.80;99.90
19781;DHT22;10050;55.492;13.506;2023-04-01T23:17:52;1.90;99.90
19781;DHT22;10050;55.492;13.506;2023-04-01T23:20:24;1.90;99.90
19781;DHT22;10050;55.492;13.506;2023-04-01T23:33:30;1.80;99.90
19781;DHT22;10050;55.492;13.506;2023-04-01T23:36:10;1.90;99.90
19781;DHT22;10050;55.492;13.506;2023-04-01T23:38:40;1.80;99.90
19781;DHT22;10050;55.492;13.506;2023-04-01T23:41:29;1.80;99.90
19781;DHT22;10050;55.492;13.506;2023-04-01T23:44:10;1.80;99.90
19781;DHT22;10050;55.492;13.506;2023-04-01T23:46:46;1.80;99.90
19781;DHT22;10050;55.492;13.506;2023-04-01T23:49:21;1.80;99.90
19781;DHT22;10050;55.492;13.506;2023-04-01T23:52:14;1.70;99.90
19781;DHT22;10050;55.492;13.506;2023-04-01T23:57:33;1.70;99.90
